ADVERTISEMENT

iOS app on App Store Android app on Google Play

2018 \ Awesome 80's Run Pasadena - February 24, 2018

Notes Pages Download Filter By
  [1] 2 3 4 5 6 7




Keyword Exact  
Division

Bib Division Last Name First Name Division Place Chip Overall City State
571 25-29 Male Valenzuela Brian 1 00:17:25 1 Los Angeles CA
572 50-54 Male Valenzuela Sergio 1 00:18:15 2 Los Angeles CA
239 40-44 Male Harris Rob 1 00:18:33 3 Burbank CA
526 13-19 Male Soriano Daniel 1 00:18:53 4 Temple City CA
419 1-12 Male Oviedo Emilio 1 00:19:00 5 Santa Clarita CA
683 25-29 Female Moore Nina 1 00:19:26 6 Santa Clarita CA
685 25-29 Male Israelson Jeffrey 2 00:19:53 7 Los Angeles CA
657 35-39 Male Castillo Juan 1 00:20:51 8 Los Angeles CA
362 20-24 Male Mcconnell George 1 00:20:58 9 San Francisco CA
363 25-29 Male Mcconnell Scott 3 00:21:08 10 Los Angeles CA
645 1-12 Female Vasquez Ryan 1 00:21:14 11 Saugus CA
527 1-12 Male Soriano Kyle 2 00:21:15 12 Temple City CA
573 25-29 Male Valenzuela Shawn 4 00:21:16 13 Los Angeles CA
695 25-29 Female Mielnicki Ally 2 00:21:17 14 Burbank CA
14 13-19 Male Alvarez Adrian 2 00:21:19 15 Pasadena CA
551 40-44 Male Thomas Steve 2 00:21:21 16 Hesperia CA
586 20-24 Male Veneman Matt 2 00:21:27 17 Los Angeles CA
167 50-54 Male Eyo Kevin 2 00:21:33 18 Pasadena CA
537 50-54 Female Suising Riya 1 00:21:41 19 Palo Alto CA
669 55-59 Male Smith Duncan 1 00:21:54 20 Pasadena CA
672 Age Unknown - Male Unknown 1 00:22:02 21
433 13-19 Male Perez Devin 3 00:22:07 22 Harbor City CA
509 40-44 Male Schober Toland 3 00:22:12 23 La Canada CA
179 45-49 Male Flanagan Sean 1 00:22:20 24 Simi Valley CA
19 40-44 Male Alvarez Robert 4 00:22:21 25 Pasadena CA
74 30-34 Female Burg Mickey 1 00:22:30 26 Simi Valley CA
372 25-29 Female Meyers Jennifer 3 00:22:34 27 Pasadena CA
396 55-59 Male Morris Jeffery 2 00:22:38 28 Newport Beach CA
325 50-54 Male Lombardi Vince 3 00:22:43 29 Arcadia CA
559 30-34 Male Tracey James 1 00:22:43 30 Pasadena CA
5 35-39 Male Castro Andrey 2 00:22:49 31 Cudahy CA
168 25-29 Female Eyo Veronica 4 00:23:02 32 Pasadena CA
284 35-39 Male Juarez Michael 3 00:23:04 33 Yorba Linda CA
166 25-29 Female Ewing Aleta 5 00:23:07 34 Las Vegas NV
383 25-29 Male Miranda Ubaldo 5 00:23:08 35 South Gate CA
442 13-19 Male Pitkin Clayton 4 00:23:15 36 Los Angeles CA
598 35-39 Male Weaver Kevin 4 00:23:22 37 Monrovia CA
495 1-12 Female Sabbag Michaela 2 00:23:22 38 Pasadena CA
235 1-12 Male Harden Logan 3 00:23:28 39 Fontana CA
354 40-44 Female Masuda E.J. 1 00:23:31 40 Hollywood CA
3 45-49 Female Alcala Rosalinda 1 00:23:37 41 Anaheim CA
244 35-39 Male Hayashibara Keoni 5 00:23:41 42 Burbank CA
395 35-39 Male Morreale Brian 6 00:23:49 43 Alexandria VA
136 1-12 Female Del Rio Itzel 3 00:24:14 44 Highland CA
141 55-59 Male Dewysocki Fred 3 00:24:15 45 Los Angeles CA
138 13-19 Female Deng Mercy 1 00:24:23 46 San Gabriel CA
411 50-54 Male Obregon Jorge 4 00:24:32 47 Los Angeles CA
178 40-44 Female Flanagan Jennifer 2 00:24:36 48 Simi Valley CA
698 13-19 Male Arenas Brian 5 00:24:39 49 Chino Hills CA
353 55-59 Male Masirevic Zoran 4 00:24:42 50 Los Angeles CA
431 1-12 Male Peng Jayden 4 00:24:50 51 Arcadia CA
619 45-49 Male Zavala Rafael 2 00:25:02 52 Los Angeles CA
142 25-29 Male Diaz Alberto 6 00:25:02 53 Santa Monica CA
291 35-39 Female Koldobskaya Yelena 1 00:25:03 54 Santa Monica CA
221 35-39 Female Gregory Jennifer 2 00:25:04 55 Burbank CA
122 25-29 Female Cornejo Sharon 6 00:25:05 56 Los Angeles CA
107 35-39 Male Castro Marco 7 00:25:12 57 Sylmar CA
236 55-59 Female Hardin Andra 1 00:25:16 58 Orange CA
614 20-24 Female Yamamoto Michelle 1 00:25:16 59 Arcadia CA
568 40-44 Female Uzcategui Jessica 3 00:25:26 60 S Pasadena CA
570 25-29 Male Valdivia Aaron 7 00:25:33 61 S Pasadena CA
13 50-54 Female Alvarado Sandra 2 00:25:38 62 North Hills CA
36 45-49 Male Avila William 3 00:25:41 63 Perris CA
648 30-34 Female Villalon Sara Star 2 00:25:44 64 Panorama City CA
536 35-39 Female Suarez Mayra 3 00:25:46 65 Harbor City CA
50 45-49 Male Bayani Eric 4 00:25:47 66 Long Beach CA
150 55-59 Male Eichoff Mark 5 00:25:51 67 Los Angeles CA
443 30-34 Female Pochopien Mira 3 00:25:53 68 Gdansk
634 40-44 Female Holmes Sharon 4 00:25:54 69 Sylmar CA
278 35-39 Female Jans Debra 4 00:26:01 70 Pasadena CA
110 30-34 Female Chalikian Catherine 4 00:26:02 71 Los Angeles CA
422 50-54 Female Padilla Francis 3 00:26:03 72 Los Angeles CA
452 40-44 Male Ramirez Diego 5 00:26:07 73 Rosemead CA
655 1-12 Male Inaba Koji 5 00:26:22 74 Pasadena CA
699 13-19 Male Arenas Jason 6 00:26:26 75 Chino Hills CA
644 1-12 Male Tsukamoto Kent 6 00:26:26 76 Pasadena CA
575 40-44 Female Valerio Consuelo 5 00:26:31 77 Bellflower CA
229 45-49 Male Hagan Patrick 5 00:26:34 78 Glendale CA
485 35-39 Female Rottenberg Natalie 5 00:26:45 79 Pasadena CA
642 40-44 Female Sharp Stephanie 6 00:26:46 80 Altadena CA
321 1-12 Female Lim Jayde 4 00:26:51 81 Pasadena CA
147 13-19 Male Edmond Morgan 7 00:26:55 82 Cypress CA
174 25-29 Male Fernandez Antonio 8 00:27:01 83 Rosemead CA
203 35-39 Female Gideon Mireya 6 00:27:01 84 Sherman Oaks CA
21 30-34 Female Andreassen Dannielle 5 00:27:02 85 Los Angeles CA
700 35-39 Female Kokot Stephanie 7 00:27:06 86 Glendale CA
624 25-29 Male Camarena Manuel 9 00:27:12 87 Lancaster CA
584 35-39 Male Vega Benjamin 8 00:27:17 88 Rch Cucamonga CA
59 25-29 Male Berumen Diego 10 00:27:17 89 Arleta CA
461 40-44 Female Remington Jennifer 7 00:27:17 90 Los Angeles CA
540 40-44 Male Sunga Jed 6 00:27:24 91 Carson CA
529 60-64 Female Star Linda 1 00:27:30 92 Porter Ranch CA
583 55-59 Male Vega Adrian 6 00:27:33 93 Rowland Hghts CA
427 25-29 Female Payan Priscilla 7 00:27:40 94 Glendale CA
1 65-69 Female Aguilar Vicki 1 00:27:42 95 Burbank CA
420 40-44 Male Ozier Lance 7 00:27:43 96 Bellflower CA
631 1-12 Male Goodman Max 7 00:27:44 97 Altadena CA
613 40-44 Female Wu Karen 8 00:27:46 98 Rch Cucamonga CA
77 45-49 Female Bustos Jackie 2 00:27:47 99 West Hills CA
92 45-49 Female Caruso Drea 3 00:27:53 100 Los Angeles CA
Notes Pages Download Filter By
  [1] 2 3 4




Keyword Exact  
Division

Bib Division Last Name First Name Division Place Chip Overall Sex Place City State
5008 13-19 Male Amarillas Christopher 1 00:39:11 1 1 San Dimas CA
5120 45-49 Male Galaz Dean 1 00:39:24 2 2 La Puente CA
5145 30-34 Male Greasley Sean 1 00:40:22 3 3 Las Vegas NV
5157 13-19 Male Henigan Charles 2 00:42:00 4 4 Ontario CA
5024 35-39 Male Baker Tyrone 1 00:42:52 5 5 Panorama City CA
5149 50-54 Male Guillen Louis 1 00:43:04 6 6 Baldwin Park CA
5354 45-49 Male Romero Steve 2 00:43:54 7 7 Chino CA
5134 40-44 Male Gilsenan Thomas 1 00:44:19 8 8 Sherman Oaks CA
5143 45-49 Male Gorham Glenn 3 00:44:28 9 9 Montrose CA
5281 45-49 Female Mostafa Lori 1 00:44:35 10 1 Los Angeles CA
5082 45-49 Male De La Cruz Emil 4 00:44:59 11 10 Torrance CA
5423 30-34 Male Van Dixhorn Jon 2 00:45:54 12 11 Los Angeles CA
5123 35-39 Male Gallegos Armando 2 00:46:01 13 12 South Gate CA
5129 13-19 Male Garibay Jaden 3 00:46:03 14 13 Los Angeles CA
5358 40-44 Female Ross Susan 1 00:46:08 15 2 Altadena CA
5125 35-39 Male Garcia Jonathan 3 00:46:12 16 14 Los Angeles CA
5098 60-64 Male Entwistle Martin 1 00:46:17 17 15 Pasadena CA
5425 50-54 Male Van Joolen Theo 2 00:46:19 18 16 Pasadena CA
5235 45-49 Female Lowden Leanne 2 00:46:33 19 3 La Canada CA
5122 50-54 Female Gallardo Mirza 1 00:46:46 20 4 Placentia CA
5328 50-54 Male Polen Seth 3 00:47:09 21 17 Pico Rivera CA
5437 40-44 Male Villanueva Gerard 2 00:47:35 22 18 Huntingtn Bch CA
5127 40-44 Female Garcia Nancy 2 00:48:26 23 5 Buena Park CA
5104 50-54 Male Estrada Ernie 4 00:48:48 24 19 Upland CA
5166 45-49 Male Hernandez Miguel 5 00:48:49 25 20 Whittier CA
5128 30-34 Female Garcia Sarah 1 00:49:07 26 6 Alta Loma CA
5102 13-19 Male Estrada Alex 4 00:49:11 27 21 Rch Cucamonga CA
5191 25-29 Male Jones Trinity 1 00:49:21 28 22 Escondido CA
5390 30-34 Male Spiegel Jesse 3 00:49:48 29 23 Los Angeles CA
5007 35-39 Male Alvarez Jeff 4 00:49:53 30 24 Granada Hills CA
5116 45-49 Male Foss Russell 6 00:49:58 31 25 Woodland Hls CA
5296 50-54 Male Nelson Nicolas 5 00:50:10 32 26 Los Angeles CA
5398 25-29 Male Sullivan Charles 2 00:50:11 33 27 Los Angeles CA
5046 25-29 Male Burman Timothy 3 00:50:16 34 28 San Pedro CA
5112 45-49 Male Fierro Manuel 7 00:50:20 35 29 Los Angeles CA
5107 55-59 Male Fedorov Roman 1 00:50:25 36 30 West Hills CA
5476 30-34 Female Fauci Jessica 2 00:50:27 37 7 Woodland Hls CA
5474 50-54 Female Mccarthy Julissa 2 00:50:43 38 8 Rosemead CA
5407 40-44 Male Tiller Patrick 3 00:50:44 39 31 Los Angeles CA
5348 40-44 Male Rivera Francisco 4 00:50:47 40 32 Anaheim CA
5329 45-49 Female Pollock-moore Candace 3 00:50:54 41 9 Brooks GA
5099 35-39 Male Escalante Marcos 5 00:51:00 42 33 Marina Dl Rey CA
5378 45-49 Male Sharer Rodger 8 00:51:08 43 34 Whittier CA
5139 35-39 Female Gonzalez Karla 1 00:51:10 44 10 Riverside CA
5224 35-39 Female Leivas Marissa 2 00:51:13 45 11 Escondido CA
5200 30-34 Female Newacheck Haley 3 00:51:16 46 12 Van Nuys CA
5202 35-39 Male Koller Markus 6 00:51:17 47 35 Pasadena CA
5305 30-34 Female Olin Kristin 4 00:51:21 48 13 Pasadena CA
5016 35-39 Male Arechiga Jose 7 00:51:48 49 36 San Fernando CA
5003 45-49 Male Alexa John 9 00:52:05 50 37 Pasadena CA
5148 35-39 Female Guadiana Elizabeth 3 00:52:13 51 14 Burbank CA
5249 55-59 Male Marshall Steve 2 00:52:21 52 38 La Crescenta CA
5236 35-39 Male Luhring Sean 8 00:52:21 53 39 Los Angeles CA
5095 25-29 Male Elliott Cody 4 00:52:23 54 40 Los Angeles CA
5223 40-44 Female Legat Robin 3 00:52:28 55 15 Los Angeles CA
5100 30-34 Female Espinoza Brook 5 00:52:38 56 16 Fontana CA
5225 60-64 Female Lewis Carol 1 00:52:45 57 17 La Canada CA
5401 35-39 Male Takaoka Hayato 9 00:52:54 58 41 Torrance CA
5416 45-49 Male Tubola Jehan 10 00:52:55 59 42 Los Angeles CA
5306 30-34 Male Opice Frank 4 00:53:01 60 43 Winchester CA
5121 45-49 Male Gallagher James 11 00:53:11 61 44 Santa Monica CA
5472 35-39 Male Giuliano Joseph 10 00:53:13 62 45 Los Angeles CA
5406 35-39 Male Thomas Michael 11 00:53:18 63 46 Victorville CA
5355 30-34 Female Romeroso Brianne 6 00:53:27 64 18 Los Angeles CA
5403 40-44 Female Tam Caren 4 00:53:36 65 19 Monterey Park CA
5268 45-49 Female Meyer Regina 4 00:53:42 66 20 Long Beach CA
5271 35-39 Male Milligan Marcshannon 12 00:53:47 67 47 Los Angeles CA
5374 25-29 Male Sassen David 5 00:53:51 68 48 Los Angeles CA
5222 40-44 Male Legat Jeffrey 5 00:53:52 69 49 Los Angeles CA
5435 45-49 Female Vilches Claudia 5 00:54:15 70 21 Fontana CA
5160 35-39 Female Hereera Marisela 4 00:54:29 71 22 Los Angeles CA
5370 35-39 Female Santa Cruz Maria 5 00:54:30 72 23 N Hollywood CA
5167 40-44 Female Hersage Shannon 5 00:54:42 73 24 Valencia CA
5035 45-49 Male Beltran Jorge 12 00:54:43 74 50 Ontario CA
5459 35-39 Female Zane Jazmin 6 00:55:04 75 25 Encino CA
5110 35-39 Female Fernandez Veronica 7 00:55:14 76 26 Rch Cucamonga CA
5063 40-44 Female Chacon Leilani 6 00:55:43 77 27 Victorville CA
5260 35-39 Male Mcgahan Chris 13 00:55:49 78 51 Los Angeles CA
5210 35-39 Male Kudoh Tetsuya 14 00:56:24 79 52 Rosemead CA
5047 35-39 Male Burnell Josh 15 00:56:31 80 53 N Hollywood CA
5062 30-34 Female Cha Jessica 7 00:56:42 81 28 Los Angeles CA
5074 35-39 Female Costello Lisa 8 00:56:49 82 29 Lancaster CA
5486 35-39 Female Little Christopher 9 00:57:00 83 30 Palmdale CA
5180 30-34 Male Hughes Tom 5 00:57:07 84 54 Long Beach CA
5274 20-24 Female Monroe Anabelle 1 00:57:20 85 31 Claremont CA
5323 30-34 Male Pettibone Ryan 6 00:57:20 86 55 La Verne CA
5327 35-39 Male Polcsa Gregory 16 00:57:31 87 56 Toluca Lake CA
5175 40-44 Female Hough Heather 7 00:57:34 88 32 Rosamond CA
5151 30-34 Female Haines Shannon 8 00:57:48 89 33 Corona CA
5473 40-44 Male Inouye Brandon 6 00:58:04 90 57 Artesia CA
5410 40-44 Male Torres Fernando 7 00:58:05 91 58 Valencia CA
5409 30-34 Female Torres Athena 9 00:58:06 92 34 Highland CA
5068 20-24 Male Cohen Chris 1 00:58:12 93 59 Los Angeles CA
5017 30-34 Female Arellano Lisa 10 00:58:13 94 35 Los Angeles CA
5209 35-39 Male Krohn Justin 17 00:58:16 95 60 Los Angeles CA
5164 40-44 Male Hernandez Cesar 8 00:58:17 96 61 Los Angeles CA
5217 50-54 Male Lam Darin 6 00:58:20 97 62 Torrance CA
5373 55-59 Female Santucci Michelle 1 00:58:28 98 36 Oak Park CA
5433 25-29 Male Vera Douglas 6 00:58:41 99 63 Los Angeles CA
5417 40-44 Male Turnbull Ethan 9 00:58:46 100 64 Simi Valley CA